NWS Home NWS Lubbock West Texas Mesonet Latest Conditions as of 0339 AM, Tue Jul 29, 2014

Latest   N   C   S   Daily Sum   3hrΔ   24hrΔ   Soil Data 
Site Map   24hr Precip   72hr Precip   Google Plot


Station Time of Last Temp Dew Pt. RH Wind Direction Wind Speed Wind Gust Max Wind Max Temp Min Temp Max RH Min RH Altimeter 1HR Rain Today's Rain Solar Rad
Abernathy 5ENE  03:35 AM 66 60 85% E812 13 mph 83° @ 0105 AM 68 66 90 85 30.25" 0 0.00 0
Aiken 3WSW  03:36 AM 65 61 87% E56 11 mph 71° @ 1214 AM 66 65 95 88 30.25" 0 0.00 0
Amarillo 15NNW   03:35 AM 65 62 91% SE910 13 mph 121° @ 0248 AM 68 65 91 86 30.23" 0 0.00 0
Amarillo 7SSE  03:35 AM 63 61 95% SE810 13 mph 124° @ 1201 AM 66 63 95 88 30.26" 0 0.00 0
Amarillo 9NNE  03:35 AM 65 62 90% SE44 13 mph 156° @ 0134 AM 67 65 92 88 30.23" 0 0.00 0
Amherst 1NE  03:35 AM 66 63 92% E810 16 mph 95° @ 1210 AM 71 66 92 78 30.24" 0 0.00 0
Andrews 2E  03:35 AM 76 62 63% E712 20 mph 97° @ 1205 AM 80 77 61 53 30.19" 0 0.00 0
Anton 6SSW  03:35 AM 68 61 84% E1012 14 mph 78° @ 0140 AM 72 68 84 77 30.24" 0 0.00 0
Aspermont 3NE  03:35 AM 69 60 74% NE33 10 mph 47° @ 0115 AM 73 68 74 62 30.16" 0 0.00 0
Big Bend NP - Persimmon Gap  03:35 AM 80 59 48% N1112 18 mph 2° @ 1201 AM 85 80 48 38 30.12" 0 0.00 0
Big Lake 1WNW  03:35 AM 74 65 74% E68 17 mph 102° @ 1221 AM 80 75 73 62 30.18" 0 0.00 0
Bootleg 11WNW  03:35 AM 65 64 96% SE1011 13 mph 141° @ 0302 AM 68 65 97 91 30.29" 0 0.00 0
Brownfield 2S  03:35 AM 69 61 78% E1012 16 mph 88° @ 1210 AM 74 69 78 67 30.22" 0 0.00 0
Canadian 6E  03:35 AM 69 64 82% SE55 5 mph 139° @ 0318 AM 70 69 95 77 30.19" 0 0.00 0
Caprock Canyons State Park  03:35 AM 64 62 93% NW44 5 mph 280° @ 0320 AM 67 64 93 90 30.23" 0 0.00 0
Childress 2NNE  03:35 AM 70 62 79% N34 6 mph 355° @ 0230 AM 71 68 92 78 30.18" 0 0.00 0
Clarendon 2WSW  03:35 AM 64 61 91% NE12 7 mph 136° @ 1205 AM 67 64 91 81 30.23" 0 0.00 0
Claude 12SW  03:35 AM 61 60 97% E55 8 mph 152° @ 1245 AM 64 61 97 92 30.25" 0 0.00 0
Coyanosa 2N  03:35 AM 79 61 54% E67 14 mph 127° @ 1255 AM 87 79 56 32 30.13" 0 0.00 0
Denver City 7WNW  03:35 AM 72 58 65% E1318 19 mph 90° @ 1215 AM 76 72 66 60 30.21" 0 0.00 0
Dimmitt 2NE  03:35 AM 63 62 97% SE810 14 mph 95° @ 0115 AM 66 64 98 96 30.25" 0 0.00 0
Dora NM 2SW  03:35 AM 67 64 91% SE1317 21 mph 106° @ 0225 AM 72 67 91 75 30.27" 0 0.10 0
Dozier 3W  03:35 AM 69 67 93% W01 8 mph 307° @ 0209 AM 71 69 93 82 30.21" 0 0.00 0
Floydada 2NNE  03:35 AM 64 58 84% NE47 10 mph 60° @ 0125 AM 65 63 97 85 30.23" 0 0.00 0
Fluvanna 3WNW  03:35 AM 69 58 67% NE711 14 mph 47° @ 0135 AM 75 70 70 66 30.20" 0 0.00 0
Friona 2NE  03:35 AM 66 63 93% SE811 17 mph 116° @ 0220 AM 68 66 93 87 30.26" 0 0.00 0
Gail 2ESE  03:35 AM 72 61 69% NE811 14 mph 85° @ 1240 AM 79 72 70 53 30.18" 0 0.00 0
Goodlett 3W  03:35 AM 69 65 89% NE22 6 mph 316° @ 0135 AM 71 69 90 84 30.16" 0 0.00 0
Graham 5SSW  03:35 AM 68 58 72% E814 20 mph 83° @ 1205 AM 74 69 73 70 30.21" 0 0.00 0
Guadalupe Mtns Natl Park  03:05 AM 68 59 75% NE1114 24 mph 60° @ 1220 AM 74 68 76 51 30.33" 0 0.00 0
Guthrie 10WSW  03:35 AM 67 60 79% NE67 7 mph 19° @ 0200 AM 70 67 80 75 30.18" 0 0.00 0
Hart 3N  03:35 AM 64 62 95% E79 13 mph 83° @ 1205 AM 66 64 98 94 30.25" 0 0.00 0
Haskell 1NW  03:35 AM 71 61 74% NE45 11 mph 64° @ 1215 AM 73 72 72 63 30.16" 0 0.00 0
Hereford 2NW  03:35 AM 64 61 91% SE69 16 mph 130° @ 0310 AM 66 64 94 91 30.25" 0 0.00 0
Hobbs NM 5NW  03:35 AM 74 62 67% SE1518 22 mph 100° @ 1253 AM 78 74 67 58 30.23" 0 0.00 0
Jayton 1SSE  03:35 AM 69 59 74% NE47 15 mph 61° @ 1205 AM 73 69 74 66 30.17" 0 0.00 0
Junction 1SSW  03:35 AM 73 63 71% N00 7 mph 115° @ 1202 AM 83 73 74 49 30.13" 0 0.00 0
Knox City 3NW  03:35 AM 71 59 67% NE34 10 mph 39° @ 1225 AM 73 72 66 60 30.16" 0 0.00 0
Lake Alan Henry 1NW  03:35 AM 69 59 70% NE66 15 mph 61° @ 0122 AM 75 69 71 66 30.19" 0 0.00 0
Lamesa 2SE  03:35 AM 73 61 68% E710 17 mph 90° @ 0230 AM 78 73 68 59 30.20" 0 0.00 0
Levelland 4S  03:35 AM 69 60 75% E1317 17 mph 87° @ 0235 AM 73 69 77 68 30.23" 0 0.00 0
Lomax 1SSE  03:35 AM 77 65 67% E68 20 mph 84° @ 0111 AM 82 76 67 57 30.17" 0 0.00 0
Lubbock 3WNW TTU  03:35 AM 68 60 78% E1012 17 mph 96° @ 0105 AM 72 68 79 75 30.23" 0 0.00 0
McLean 1E  03:30 AM 67 62 84% SE45 6 mph 125° @ 0315 AM 69 67 91 84 30.21" 0 0.00 0
Memphis 1NE  03:35 AM 68 65 94% N34 7 mph 354° @ 0125 AM 70 68 94 88 30.19" 0 0.00 0
Menard 2NW   03:35 AM 75 66 75% E56 10 mph 74° @ 1216 AM 81 75 75 61 30.14" 0 0.00 0
Mertzon 3NNE  03:35 AM 74 65 72% NE11 17 mph 80° @ 1211 AM 82 74 72 60 30.16" 0 0.00 0
Morton 1ENE  03:35 AM 69 63 83% NE610 16 mph 65° @ 0255 AM 74 69 82 69 30.26" 0 0.00 0
Muleshoe 2SSW  03:35 AM 67 64 92% SE811 16 mph 111° @ 0315 AM 73 67 92 75 30.25" 0 0.00 0
Northfield 1S  03:35 AM 67 62 87% SW01 5 mph 101° @ 1205 AM 70 67 86 77 30.19" 0 0.00 0
O'Donnell 1N  03:35 AM 70 60 74% E1316 17 mph 77° @ 1210 AM 75 70 73 66 30.21" 0 0.00 0
Odell 4ENE  03:35 AM 72 69 91% NW11 5 mph 309° @ 0304 AM 73 71 95 90 30.16" 0 0.00 0
Olton 6S  03:35 AM 66 61 85% E57 14 mph 85° @ 1250 AM 70 66 87 80 30.24" 0 0.00 0
Paducah 10SW  03:35 AM 67 61 81% N56 6 mph 345° @ 0135 AM 69 67 81 76 30.18" 0 0.00 0
Palo Duro Canyon State Park  03:35 AM 65 61 88% SE56 12 mph 145° @ 1216 AM 67 64 89 83 30.26" 0 0.00 0
Pampa 2E  03:35 AM 65 57 77% S910 11 mph 166° @ 0245 AM 66 65 93 77 30.24" 0 0.00 0
Plains 3N  03:35 AM 71 62 74% E1317 19 mph 92° @ 0300 AM 74 71 74 66 30.23" 0 0.00 0
Plainview 1S  03:35 AM 65 62 91% E79 11 mph 95° @ 0315 AM 66 65 95 89 30.23" 0 0.00 0
Post 1NE  03:35 AM 68 57 71% E45 12 mph 63° @ 0200 AM 74 68 74 69 30.20" 0 0.00 0
Ralls 1SE  03:35 AM 66 57 74% E68 12 mph 63° @ 0200 AM 69 65 85 75 30.23" 0 0.00 0
Reese Center  03:35 AM 68 61 80% E911 15 mph 90° @ 1215 AM 73 68 80 72 30.23" 0 0.00 0
Roaring Springs 3N  03:35 AM 66 60 82% NE56 8 mph 16° @ 0205 AM 67 66 86 80 30.21" 0 0.00 0
San Angelo 7NW  03:35 AM 76 63 65% E811 18 mph 79° @ 1210 AM 81 77 65 56 30.14" 0 0.00 0
Seagraves 1SW  03:35 AM 72 63 74% E811 15 mph 92° @ 1235 AM 77 73 74 63 30.21" 0 0.00 0
Seminole 2NNE  03:35 AM 73 59 63% E1013 17 mph 92° @ 1220 AM 77 73 65 60 30.20" 0 0.00 0
Seymour 3NW  03:35 AM 69 63 83% N34 8 mph 22° @ 1205 AM 72 68 85 70 30.14" 0 0.00 0
Silverton 7ESE  03:35 AM 62 60 95% E67 7 mph 66° @ 0135 AM 63 62 97 95 30.24" 0 0.00 0
Slaton 2NE  03:35 AM 67 56 69% E811 14 mph 85° @ 1240 AM 71 67 81 70 30.23" 0 0.00 0
Snyder 3E  03:35 AM 70 58 65% NE710 17 mph 66° @ 0115 AM 77 71 68 61 30.18" 0 0.00 0
Spur 1W  03:35 AM 68 58 73% NE68 14 mph 53° @ 1250 AM 72 68 72 69 30.18" 0 0.00 0
St. Lawrence 5SW  03:35 AM 76 63 65% E1013 26 mph 92° @ 1225 AM 80 77 65 56 30.17" 0 0.00 0
Sterling City 4WSW  03:35 AM 77 65 67% E1012 19 mph 82° @ 1211 AM 82 77 67 57 30.16" 0 0.00 0
Sundown 8WSW  03:35 AM 69 63 85% E912 19 mph 97° @ 0310 AM 74 69 82 68 30.24" 0 0.00 0
Sweetwater 11SW   03:35 AM 70 62 76% NE88 15 mph 72° @ 1229 AM 77 70 76 61 30.19" 0 0.00 0
Tahoka 3NNE  03:35 AM 67 59 80% E813 17 mph 83° @ 1225 AM 72 68 80 75 30.21" 0 0.00 0
Tulia 2ENE  03:35 AM 62 61 99% E45 8 mph 68° @ 1235 AM 64 62 100 100 30.25" 0 0.00 0
Turkey 2WSW  03:35 AM 66 63 92% NW44 5 mph 344° @ 1210 AM 67 66 91 88 30.21" 0 0.00 0
Umbarger 3NNE  03:35 AM 63 60 92% SE89 13 mph 123° @ 0231 AM 65 63 95 92 30.26" 0 0.00 0
Wall 1E  03:35 AM 74 64 72% E78 15 mph 89° @ 1205 AM 81 72 74 58 30.14" 0 0.00 0
Weinert 2NNE  03:35 AM 72 63 73% NE56 9 mph 66° @ 0211 AM 73 72 73 67 30.16" 0 0.00 0
White River Lake 6NW  03:35 AM 68 56 68% NE810 15 mph 53° @ 0125 AM 71 67 75 67 30.20" 0 0.00 0
Wolfforth 6SSW  03:35 AM 68 60 78% E1216 18 mph 86° @ 0130 AM 73 68 78 71 30.23" 0 0.00 0

West Texas Mesonet Home   Site Map/Menu  NWS Lubbock Soil Data  Daily Summary Page  24hr Precip  72hr Precip  Google Plot